Time;durP1;ratioP1;P1;durP2;ratioP2;P2;SDS_P1;SDS_P2;PMS_P1;PMS_P2;Temp;Humidity;BMP_temperature;BMP_pressure;BME280_temperature;BME280_humidity;BME280_pressure;Samples;Min_cycle;Max_cycle;Signal;HPM_P1;HPM_P2
2021/11/29 04:59:11;;;;;;;;;;;1.20;99.90;;;;;;5009456;28;19917;-77
2021/11/29 05:01:38;;;;;;;;;;;1.20;99.90;;;;;;5007279;28;19911;-78
2021/11/29 05:04:05;;;;;;;;;;;1.10;99.90;;;;;;5010988;28;19910;-78
2021/11/29 05:06:32;;;;;;;;;;;1.20;99.90;;;;;;5011413;28;19910;-75
2021/11/29 05:08:59;;;;;;;;;;;1.20;99.90;;;;;;5009725;28;19910;-76
2021/11/29 05:11:25;;;;;;;;;;;1.10;99.90;;;;;;5008494;28;19910;-83
2021/11/29 05:13:52;;;;;;;;;;;1.20;99.90;;;;;;5015528;28;19936;-84
2021/11/29 05:16:20;;;;;;;;;;;1.00;99.90;;;;;;5010244;28;19910;-77
2021/11/29 06:08:05;;;;;;;;;;;0.70;99.90;;;;;;5119353;23;19926;-83
2021/11/29 06:10:32;;;;;;;;;;;0.60;99.90;;;;;;5352998;23;19926;-77
2021/11/29 06:12:59;;;;;;;;;;;0.60;99.90;;;;;;4998741;28;19922;-80
2021/11/29 06:15:26;;;;;;;;;;;0.50;99.90;;;;;;4985187;28;19954;-78
2021/11/29 06:17:53;;;;;;;;;;;0.40;99.90;;;;;;5422329;23;21213;-80
2021/11/29 06:20:22;;;;;;;;;;;0.50;99.90;;;;;;5014187;28;19962;-83
2021/11/29 06:25:26;;;;;;;;;;;0.50;99.90;;;;;;5242005;23;19923;-80
2021/11/29 06:30:19;;;;;;;;;;;0.20;99.90;;;;;;4997418;23;19910;-80
2021/11/29 06:32:46;;;;;;;;;;;0.50;99.90;;;;;;4989864;28;19934;-78
2021/11/29 06:35:13;;;;;;;;;;;0.50;99.90;;;;;;4983116;28;19917;-78
2021/11/29 06:37:43;;;;;;;;;;;0.50;99.90;;;;;;4989645;28;19910;-80
2021/11/29 06:40:10;;;;;;;;;;;0.50;99.90;;;;;;4998748;28;19910;-77
2021/11/29 06:45:14;;;;;;;;;;;0.50;99.90;;;;;;5034242;23;19910;-83
2021/11/29 06:47:42;;;;;;;;;;;0.60;99.90;;;;;;4982138;28;19933;-84
2021/11/29 06:52:45;;;;;;;;;;;0.60;99.90;;;;;;5366064;23;19922;-80
2021/11/29 07:00:20;;;;;;;;;;;0.80;99.90;;;;;;5080696;23;19934;-82
2021/11/29 07:02:48;;;;;;;;;;;0.80;99.90;;;;;;4961644;28;19937;-81
2021/11/29 07:05:15;;;;;;;;;;;0.80;99.90;;;;;;4959184;28;19978;-74
2021/11/29 07:07:42;;;;;;;;;;;0.90;99.90;;;;;;4973424;28;19986;-83
2021/11/29 07:12:44;;;;;;;;;;;0.90;99.90;;;;;;5031804;23;20232;-79
2021/11/29 07:15:12;;;;;;;;;;;0.80;99.90;;;;;;4963747;28;19941;-72
2021/11/29 07:17:40;;;;;;;;;;;0.80;99.90;;;;;;5006784;23;19953;-80
2021/11/29 07:22:32;;;;;;;;;;;0.90;99.90;;;;;;5043434;23;19910;-79
2021/11/29 07:25:02;;;;;;;;;;;0.90;99.90;;;;;;4988001;28;19953;-80
2021/11/29 07:27:29;;;;;;;;;;;0.90;99.90;;;;;;5000609;28;19937;-76
2021/11/29 07:29:56;;;;;;;;;;;0.90;99.90;;;;;;4989744;28;19930;-80
2021/11/29 07:37:20;;;;;;;;;;;0.60;99.90;;;;;;4993415;23;20457;-82
2021/11/29 07:39:48;;;;;;;;;;;0.70;99.90;;;;;;4996216;28;19993;-73
2021/11/29 07:42:15;;;;;;;;;;;0.60;99.90;;;;;;4985496;28;19911;-81
2021/11/29 07:47:16;;;;;;;;;;;0.70;99.90;;;;;;5506677;23;19935;-80
2021/11/29 07:49:43;;;;;;;;;;;0.70;99.90;;;;;;4985082;28;19933;-79
2021/11/29 07:52:13;;;;;;;;;;;1.00;99.90;;;;;;4983092;28;19926;-81
2021/11/29 07:54:41;;;;;;;;;;;0.80;99.90;;;;;;4999947;28;19914;-74
2021/11/29 08:07:28;;;;;;;;;;;1.00;99.90;;;;;;5036991;28;19916;-68
2021/11/29 08:09:59;;;;;;;;;;;1.00;99.90;;;;;;5037148;28;19914;-80
2021/11/29 08:12:26;;;;;;;;;;;0.90;99.90;;;;;;5000246;28;19945;-69
2021/11/29 08:25:16;;;;;;;;;;;1.50;99.90;;;;;;5570921;23;19909;-76
2021/11/29 08:33:08;;;;;;;;;;;1.70;99.90;;;;;;5337771;23;19918;-68
2021/11/29 08:35:36;;;;;;;;;;;1.50;99.90;;;;;;5000339;28;19921;-66
2021/11/29 08:38:03;;;;;;;;;;;1.70;99.90;;;;;;4961459;28;19911;-67
2021/11/29 08:40:33;;;;;;;;;;;1.60;99.90;;;;;;4961797;28;19918;-67
2021/11/29 08:43:02;;;;;;;;;;;1.70;99.90;;;;;;4961420;28;19989;-75
2021/11/29 09:09:51;;;;;;;;;;;2.10;99.90;;;;;;5613179;23;19918;-83
2021/11/29 09:12:18;;;;;;;;;;;2.30;99.90;;;;;;4990259;28;19911;-75
2021/11/29 09:14:45;;;;;;;;;;;2.50;99.90;;;;;;4974609;28;19977;-83
2021/11/29 09:17:12;;;;;;;;;;;2.60;99.90;;;;;;4979696;28;19942;-77
2021/11/29 09:19:42;;;;;;;;;;;2.60;99.90;;;;;;4982809;28;19941;-81
2021/11/29 09:22:09;;;;;;;;;;;2.60;99.90;;;;;;4949879;28;19950;-78
2021/11/29 09:24:35;;;;;;;;;;;2.60;99.90;;;;;;4969131;28;19926;-76
2021/11/29 09:27:04;;;;;;;;;;;2.60;99.90;;;;;;4954899;28;19989;-75
2021/11/29 09:29:30;;;;;;;;;;;2.60;99.90;;;;;;4952616;28;19926;-76
2021/11/29 09:31:58;;;;;;;;;;;2.50;99.90;;;;;;4952601;28;20062;-75
2021/11/29 09:34:25;;;;;;;;;;;2.60;99.90;;;;;;4953413;28;19930;-76
2021/11/29 09:36:52;;;;;;;;;;;2.70;99.90;;;;;;4953450;28;19927;-74
2021/11/29 09:39:18;;;;;;;;;;;2.80;99.90;;;;;;4962707;28;19910;-80
2021/11/29 09:41:45;;;;;;;;;;;2.70;99.90;;;;;;4978459;28;19934;-81
2021/11/29 09:44:13;;;;;;;;;;;2.70;99.90;;;;;;4980017;28;19910;-75
2021/11/29 09:46:40;;;;;;;;;;;2.70;99.90;;;;;;4979472;28;19917;-79
2021/11/29 09:49:07;;;;;;;;;;;2.70;99.90;;;;;;4983089;28;19957;-76
2021/11/29 09:51:34;;;;;;;;;;;2.80;99.90;;;;;;4963152;28;19911;-78
2021/11/29 09:54:01;;;;;;;;;;;2.80;99.90;;;;;;4963006;28;19927;-80
2021/11/29 09:56:28;;;;;;;;;;;2.90;99.90;;;;;;4951052;28;19918;-75
2021/11/29 09:58:55;;;;;;;;;;;3.00;99.90;;;;;;4962876;28;19961;-80
2021/11/29 10:01:23;;;;;;;;;;;3.10;99.90;;;;;;4973654;28;19945;-78
2021/11/29 10:03:49;;;;;;;;;;;3.20;99.90;;;;;;4979866;28;19910;-81
2021/11/29 10:06:16;;;;;;;;;;;3.30;99.90;;;;;;4982364;28;19910;-75
2021/11/29 10:08:43;;;;;;;;;;;3.30;99.90;;;;;;4983542;28;19911;-70
2021/11/29 10:11:11;;;;;;;;;;;3.30;99.90;;;;;;4983357;28;19942;-71
2021/11/29 10:21:22;;;;;;;;;;;3.60;99.90;;;;;;5229170;23;19932;-71
2021/11/29 10:29:01;;;;;;;;;;;3.70;99.90;;;;;;5378846;23;19910;-73
2021/11/29 10:52:02;;;;;;;;;;;4.40;99.90;;;;;;5831657;23;20375;-80
2021/11/29 10:54:30;;;;;;;;;;;4.60;99.90;;;;;;4959459;28;19926;-78
2021/11/29 10:56:57;;;;;;;;;;;4.60;99.90;;;;;;4963813;28;19927;-80
2021/11/29 10:59:25;;;;;;;;;;;4.70;99.90;;;;;;4966703;28;19927;-80
2021/11/29 11:01:53;;;;;;;;;;;4.80;99.90;;;;;;4958607;28;19926;-78
2021/11/29 11:04:21;;;;;;;;;;;4.90;99.90;;;;;;4959196;28;19934;-78
2021/11/29 11:06:50;;;;;;;;;;;5.00;99.90;;;;;;4965931;28;19934;-78
2021/11/29 11:09:20;;;;;;;;;;;5.10;99.90;;;;;;4980231;28;19925;-77
2021/11/29 11:11:48;;;;;;;;;;;5.20;99.90;;;;;;4992340;28;19943;-81
2021/11/29 11:14:16;;;;;;;;;;;5.30;99.90;;;;;;4986147;28;19933;-81
2021/11/29 11:16:51;;;;;;;;;;;5.50;99.90;;;;;;4986816;28;19970;-79
2021/11/29 11:19:22;;;;;;;;;;;5.50;99.90;;;;;;4981442;28;19918;-72
2021/11/29 11:21:49;;;;;;;;;;;5.50;99.90;;;;;;4989890;28;19910;-71
2021/11/29 11:24:21;;;;;;;;;;;5.60;99.90;;;;;;4999060;28;19952;-75
2021/11/29 11:26:49;;;;;;;;;;;5.60;99.90;;;;;;4985267;28;19970;-78
2021/11/29 11:29:30;;;;;;;;;;;5.70;99.90;;;;;;4981380;28;19911;-80
2021/11/29 11:32:07;;;;;;;;;;;5.70;99.90;;;;;;4997961;28;19953;-71
2021/11/29 11:34:34;;;;;;;;;;;5.70;99.90;;;;;;5008309;23;19942;-79
2021/11/29 11:37:01;;;;;;;;;;;5.70;99.90;;;;;;5021929;28;19961;-76
2021/11/29 11:39:29;;;;;;;;;;;5.70;99.90;;;;;;5030579;28;19936;-76
2021/11/29 11:41:56;;;;;;;;;;;5.70;99.90;;;;;;5036700;28;19941;-79
2021/11/29 11:44:23;;;;;;;;;;;5.70;99.90;;;;;;5035493;28;19913;-69
2021/11/29 11:46:50;;;;;;;;;;;5.70;99.90;;;;;;5027888;28;19937;-80
2021/11/29 11:49:17;;;;;;;;;;;5.70;99.90;;;;;;5012268;28;19934;-79
2021/11/29 11:51:44;;;;;;;;;;;5.80;99.90;;;;;;5006954;28;19932;-79
2021/11/29 11:54:11;;;;;;;;;;;5.90;99.90;;;;;;5002462;28;20668;-77
2021/11/29 11:56:40;;;;;;;;;;;6.00;99.90;;;;;;4976672;28;19926;-78
2021/11/29 11:59:12;;;;;;;;;;;6.10;99.90;;;;;;4982937;28;20008;-79
2021/11/29 12:01:40;;;;;;;;;;;6.10;99.90;;;;;;4982383;28;20287;-79
2021/11/29 12:04:10;;;;;;;;;;;6.20;99.90;;;;;;4985783;28;19934;-79
2021/11/29 12:06:37;;;;;;;;;;;6.30;99.90;;;;;;4998507;28;19990;-79
2021/11/29 12:09:06;;;;;;;;;;;6.40;99.90;;;;;;4989525;28;19929;-80
2021/11/29 12:11:35;;;;;;;;;;;6.60;99.90;;;;;;4997949;28;19926;-80
2021/11/29 12:14:20;;;;;;;;;;;6.70;99.90;;;;;;4995990;28;19933;-80
2021/11/29 12:16:53;;;;;;;;;;;6.90;99.90;;;;;;4984013;28;20392;-78
2021/11/29 12:19:35;;;;;;;;;;;7.00;99.90;;;;;;4994527;28;19953;-78
2021/11/29 12:22:03;;;;;;;;;;;7.00;99.90;;;;;;4995474;28;19926;-78
2021/11/29 12:24:37;;;;;;;;;;;6.90;99.90;;;;;;4991396;28;19952;-83
2021/11/29 12:27:04;;;;;;;;;;;6.80;99.90;;;;;;5008290;28;19944;-80
2021/11/29 12:29:51;;;;;;;;;;;6.80;99.90;;;;;;5007541;28;20334;-80
2021/11/29 12:32:20;;;;;;;;;;;6.70;99.90;;;;;;4995133;28;19933;-80
2021/11/29 12:34:57;;;;;;;;;;;6.70;99.90;;;;;;5010244;28;19963;-80
2021/11/29 12:37:25;;;;;;;;;;;6.80;99.90;;;;;;4994495;28;20016;-73
2021/11/29 12:39:55;;;;;;;;;;;7.00;99.90;;;;;;4994960;28;19973;-82
2021/11/29 12:42:40;;;;;;;;;;;7.20;99.90;;;;;;4999758;28;19909;-78
2021/11/29 12:45:11;;;;;;;;;;;7.30;99.90;;;;;;5000236;28;19976;-79
2021/11/29 12:47:43;;;;;;;;;;;7.30;99.90;;;;;;5000850;28;19926;-79
2021/11/29 12:50:24;;;;;;;;;;;7.30;99.90;;;;;;4994975;28;19918;-79
2021/11/29 12:52:51;;;;;;;;;;;7.30;99.90;;;;;;5004748;28;19937;-71
2021/11/29 12:55:27;;;;;;;;;;;7.50;99.90;;;;;;4988430;28;19927;-73
2021/11/29 12:58:16;;;;;;;;;;;7.80;99.90;;;;;;4997800;28;19950;-79
2021/11/29 13:00:44;;;;;;;;;;;8.00;99.90;;;;;;4988517;28;19926;-78
2021/11/29 13:03:13;;;;;;;;;;;8.10;99.90;;;;;;4983708;28;20017;-81
2021/11/29 13:05:40;;;;;;;;;;;8.20;99.90;;;;;;4979236;28;20395;-78
2021/11/29 13:08:08;;;;;;;;;;;8.30;99.90;;;;;;4974901;28;19926;-81
2021/11/29 13:10:48;;;;;;;;;;;8.10;99.80;;;;;;4990105;28;19970;-80
2021/11/29 13:13:25;;;;;;;;;;;7.90;99.60;;;;;;5018789;28;19944;-73
2021/11/29 13:15:53;;;;;;;;;;;7.70;99.90;;;;;;5018592;28;19917;-79
2021/11/29 13:18:38;;;;;;;;;;;7.50;99.90;;;;;;4985313;28;19933;-79
2021/11/29 13:21:06;;;;;;;;;;;7.50;99.90;;;;;;4989513;28;19934;-79
2021/11/29 13:23:33;;;;;;;;;;;7.40;99.90;;;;;;4989415;28;19969;-78
2021/11/29 13:26:02;;;;;;;;;;;7.40;99.90;;;;;;5003847;28;19921;-74
2021/11/29 13:28:28;;;;;;;;;;;7.30;99.90;;;;;;5019161;28;19910;-71
2021/11/29 13:30:55;;;;;;;;;;;7.20;99.90;;;;;;5002508;28;19910;-81
2021/11/29 13:33:22;;;;;;;;;;;6.90;99.90;;;;;;5007309;28;19973;-80
2021/11/29 13:35:49;;;;;;;;;;;6.80;99.90;;;;;;5004865;28;19917;-82
2021/11/29 13:38:23;;;;;;;;;;;6.90;99.90;;;;;;5013762;28;20309;-82
2021/11/29 13:40:51;;;;;;;;;;;6.90;99.90;;;;;;4995742;28;19968;-81
2021/11/29 13:43:23;;;;;;;;;;;7.10;99.90;;;;;;4984357;28;19934;-80
2021/11/29 13:45:50;;;;;;;;;;;7.20;99.90;;;;;;5001555;28;19910;-80
2021/11/29 13:48:16;;;;;;;;;;;7.20;99.90;;;;;;5005279;28;19944;-79
2021/11/29 13:50:45;;;;;;;;;;;7.20;99.90;;;;;;5000341;28;19949;-78
2021/11/29 13:53:14;;;;;;;;;;;7.30;99.90;;;;;;4985249;28;19945;-80
2021/11/29 13:55:43;;;;;;;;;;;7.30;99.90;;;;;;4995845;28;19942;-81
2021/11/29 13:58:13;;;;;;;;;;;7.50;99.90;;;;;;4998654;28;19941;-80
2021/11/29 14:00:40;;;;;;;;;;;7.70;99.90;;;;;;4993977;28;19926;-79
2021/11/29 14:03:12;;;;;;;;;;;7.80;99.90;;;;;;5030951;23;19997;-81
2021/11/29 14:05:41;;;;;;;;;;;7.80;99.90;;;;;;4993980;28;19934;-80
2021/11/29 14:08:08;;;;;;;;;;;7.80;99.90;;;;;;4999895;28;19910;-82
2021/11/29 14:10:37;;;;;;;;;;;7.80;99.90;;;;;;5002007;28;19938;-79
2021/11/29 14:13:05;;;;;;;;;;;7.70;99.90;;;;;;5002505;28;19930;-73
2021/11/29 14:15:51;;;;;;;;;;;7.70;99.90;;;;;;5002364;28;19917;-79
2021/11/29 14:18:22;;;;;;;;;;;7.60;99.90;;;;;;5001090;28;19914;-80
2021/11/29 14:20:54;;;;;;;;;;;7.60;99.90;;;;;;5001577;28;19933;-77
2021/11/29 14:23:21;;;;;;;;;;;7.70;99.90;;;;;;4998252;28;19984;-80
2021/11/29 14:25:48;;;;;;;;;;;7.80;99.90;;;;;;4988986;28;19938;-82
2021/11/29 14:28:16;;;;;;;;;;;7.70;99.90;;;;;;4986135;28;19930;-80
2021/11/29 14:33:10;;;;;;;;;;;7.40;99.90;;;;;;5496610;23;19931;-80
2021/11/29 14:35:37;;;;;;;;;;;7.30;99.90;;;;;;4951345;28;19942;-80
2021/11/29 14:38:04;;;;;;;;;;;7.10;99.90;;;;;;4944180;29;19966;-81
2021/11/29 14:40:31;;;;;;;;;;;6.90;99.90;;;;;;4941070;29;19918;-79
2021/11/29 14:42:58;;;;;;;;;;;6.80;99.90;;;;;;4938113;29;19958;-83
2021/11/29 14:45:27;;;;;;;;;;;6.70;99.90;;;;;;4949676;29;19918;-81
2021/11/29 14:47:56;;;;;;;;;;;6.60;99.90;;;;;;4943456;28;19912;-78
2021/11/29 14:50:25;;;;;;;;;;;6.40;99.90;;;;;;4955328;28;19923;-80
2021/11/29 14:52:56;;;;;;;;;;;6.30;99.90;;;;;;4941601;28;19919;-81
2021/11/29 14:55:24;;;;;;;;;;;6.20;99.90;;;;;;4945469;28;19932;-79
2021/11/29 14:57:55;;;;;;;;;;;6.20;99.90;;;;;;4942700;29;19966;-81
2021/11/29 15:00:23;;;;;;;;;;;6.10;99.90;;;;;;4932880;29;19941;-80
2021/11/29 15:03:00;;;;;;;;;;;6.00;99.90;;;;;;4955797;28;20262;-81
2021/11/29 15:05:26;;;;;;;;;;;6.00;99.90;;;;;;4949590;28;19914;-71
2021/11/29 15:07:53;;;;;;;;;;;5.90;99.90;;;;;;4953132;28;19930;-75
2021/11/29 15:12:56;;;;;;;;;;;5.70;99.90;;;;;;5494763;23;19946;-81
2021/11/29 15:15:23;;;;;;;;;;;5.60;99.90;;;;;;4978301;28;19927;-80
2021/11/29 15:17:52;;;;;;;;;;;5.50;99.90;;;;;;4981962;28;19953;-80
2021/11/29 15:20:21;;;;;;;;;;;5.40;99.90;;;;;;4970746;28;19934;-79
2021/11/29 15:22:49;;;;;;;;;;;5.30;99.90;;;;;;4979321;28;19930;-80
2021/11/29 15:25:19;;;;;;;;;;;5.30;99.90;;;;;;4974823;28;19931;-80
2021/11/29 15:27:45;;;;;;;;;;;5.20;99.90;;;;;;4976659;28;19969;-81
2021/11/29 15:30:17;;;;;;;;;;;5.10;99.90;;;;;;4985881;28;19910;-78
2021/11/29 15:32:45;;;;;;;;;;;5.00;99.90;;;;;;4977958;28;19950;-81
2021/11/29 15:35:15;;;;;;;;;;;5.00;99.90;;;;;;4967914;28;19940;-79
2021/11/29 15:37:42;;;;;;;;;;;5.00;99.90;;;;;;4963906;28;20029;-78
2021/11/29 15:40:33;;;;;;;;;;;4.90;99.90;;;;;;4968147;28;19953;-76
2021/11/29 15:43:02;;;;;;;;;;;5.00;99.90;;;;;;4970569;28;20325;-81
2021/11/29 15:45:30;;;;;;;;;;;5.00;99.90;;;;;;4968105;28;22343;-78
2021/11/29 15:47:57;;;;;;;;;;;5.00;99.90;;;;;;4961380;28;19930;-81
2021/11/29 15:50:25;;;;;;;;;;;4.90;99.90;;;;;;4974630;28;20414;-77
2021/11/29 15:52:52;;;;;;;;;;;4.80;99.90;;;;;;4981490;28;19968;-81
2021/11/29 15:55:19;;;;;;;;;;;4.70;99.90;;;;;;4973705;28;19976;-78
2021/11/29 15:57:46;;;;;;;;;;;4.60;99.90;;;;;;4978770;28;20383;-79
2021/11/29 16:00:13;;;;;;;;;;;4.50;99.90;;;;;;4972401;28;19953;-81
2021/11/29 16:02:39;;;;;;;;;;;4.40;99.90;;;;;;4980620;28;19926;-79
2021/11/29 16:05:06;;;;;;;;;;;4.40;99.90;;;;;;4968371;28;20002;-80
2021/11/29 16:07:34;;;;;;;;;;;4.40;99.90;;;;;;4974943;28;19926;-79
2021/11/29 16:10:01;;;;;;;;;;;4.40;99.90;;;;;;4965021;28;20017;-79
2021/11/29 16:15:12;;;;;;;;;;;4.40;99.90;;;;;;4962165;28;19934;-80
2021/11/29 16:20:25;;;;;;;;;;;4.50;99.90;;;;;;4974922;28;19934;-82
2021/11/29 16:22:54;;;;;;;;;;;4.50;99.90;;;;;;5006805;23;19915;-81
2021/11/29 16:25:24;;;;;;;;;;;4.50;99.90;;;;;;4973344;28;19926;-81
2021/11/29 16:27:54;;;;;;;;;;;4.50;99.90;;;;;;4986359;28;19926;-80
2021/11/29 16:30:27;;;;;;;;;;;4.50;99.90;;;;;;5111539;23;19926;-80
2021/11/29 16:32:54;;;;;;;;;;;4.50;99.90;;;;;;5005666;28;19930;-80
2021/11/29 16:35:21;;;;;;;;;;;4.40;99.90;;;;;;5002056;28;19954;-76
2021/11/29 16:37:48;;;;;;;;;;;4.40;99.90;;;;;;5019187;28;19914;-81
2021/11/29 16:40:16;;;;;;;;;;;4.30;99.90;;;;;;5019365;28;19910;-74
2021/11/29 16:42:43;;;;;;;;;;;4.20;99.90;;;;;;5019384;28;19913;-73
2021/11/29 16:45:10;;;;;;;;;;;4.20;99.90;;;;;;5019213;28;19910;-77
2021/11/29 16:47:38;;;;;;;;;;;4.20;99.90;;;;;;5006006;28;20004;-81
2021/11/29 16:50:05;;;;;;;;;;;4.10;99.90;;;;;;5001314;28;19925;-79
2021/11/29 16:52:33;;;;;;;;;;;4.10;99.90;;;;;;5017631;28;19981;-84
2021/11/29 16:54:59;;;;;;;;;;;4.10;99.90;;;;;;5019412;28;19910;-71
2021/11/29 17:00:13;;;;;;;;;;;4.10;99.90;;;;;;3263289;26;19916;-80
2021/11/29 17:05:28;;;;;;;;;;;4.10;99.90;;;;;;4999838;28;19916;-77
2021/11/29 17:07:58;;;;;;;;;;;4.10;99.90;;;;;;4997278;28;19910;-80
2021/11/29 17:10:25;;;;;;;;;;;4.10;99.90;;;;;;4992608;28;19970;-73
2021/11/29 17:18:13;;;;;;;;;;;4.10;99.90;;;;;;5087739;23;19934;-80
2021/11/29 17:20:51;;;;;;;;;;;4.20;99.90;;;;;;4990060;28;19932;-82
2021/11/29 17:23:21;;;;;;;;;;;4.20;99.90;;;;;;4989175;28;19942;-77
2021/11/29 17:25:48;;;;;;;;;;;4.20;99.90;;;;;;4986117;28;19927;-79
2021/11/29 17:28:15;;;;;;;;;;;4.20;99.90;;;;;;4991091;28;19910;-79
2021/11/29 17:30:46;;;;;;;;;;;4.10;99.90;;;;;;4997721;28;19917;-76
2021/11/29 17:33:14;;;;;;;;;;;4.10;99.90;;;;;;4997228;28;19920;-75
2021/11/29 17:35:43;;;;;;;;;;;4.10;99.90;;;;;;5001524;28;20322;-77
2021/11/29 17:38:10;;;;;;;;;;;4.10;99.90;;;;;;4991227;28;19941;-81
2021/11/29 17:40:37;;;;;;;;;;;4.10;99.90;;;;;;5002134;28;19933;-78
2021/11/29 17:43:04;;;;;;;;;;;4.00;99.90;;;;;;4974213;28;19926;-81
2021/11/29 17:45:31;;;;;;;;;;;4.00;99.90;;;;;;4977625;28;20016;-79
2021/11/29 17:47:57;;;;;;;;;;;3.90;99.90;;;;;;4969794;28;19980;-79
2021/11/29 17:53:01;;;;;;;;;;;3.90;99.90;;;;;;5043962;23;19911;-79
2021/11/29 17:55:28;;;;;;;;;;;3.90;99.90;;;;;;4977023;28;19915;-76
2021/11/29 17:57:56;;;;;;;;;;;3.90;99.90;;;;;;4967966;28;19926;-81
2021/11/29 18:00:24;;;;;;;;;;;3.90;99.90;;;;;;4963048;29;19993;-81
2021/11/29 18:02:52;;;;;;;;;;;3.90;99.90;;;;;;4972570;29;19974;-80
2021/11/29 18:05:19;;;;;;;;;;;3.90;99.90;;;;;;4965291;28;20421;-79
2021/11/29 18:07:52;;;;;;;;;;;3.90;99.90;;;;;;4966411;28;19911;-76
2021/11/29 18:13:06;;;;;;;;;;;3.90;99.90;;;;;;4965047;28;19935;-71
2021/11/29 18:15:36;;;;;;;;;;;3.90;99.90;;;;;;4963746;28;19957;-79
2021/11/29 18:18:04;;;;;;;;;;;3.90;99.90;;;;;;4945863;29;19931;-80
2021/11/29 18:20:32;;;;;;;;;;;3.90;99.90;;;;;;4964615;29;19934;-82
2021/11/29 18:23:02;;;;;;;;;;;3.90;99.90;;;;;;4967273;29;19934;-81
2021/11/29 18:25:30;;;;;;;;;;;3.90;99.90;;;;;;4960374;29;19927;-80
2021/11/29 18:27:58;;;;;;;;;;;3.90;99.90;;;;;;4965706;29;20012;-80
2021/11/29 18:30:27;;;;;;;;;;;3.90;99.90;;;;;;4964609;28;19937;-81
2021/11/29 18:35:37;;;;;;;;;;;3.90;99.90;;;;;;4960911;28;19926;-80
2021/11/29 18:38:04;;;;;;;;;;;3.90;99.90;;;;;;4963004;29;20023;-81
2021/11/29 18:40:33;;;;;;;;;;;3.90;99.90;;;;;;4963088;29;19974;-81
2021/11/29 18:43:06;;;;;;;;;;;3.90;99.90;;;;;;4961974;28;19926;-81
2021/11/29 18:45:35;;;;;;;;;;;4.00;99.90;;;;;;4967576;29;19958;-80
2021/11/29 18:48:13;;;;;;;;;;;3.90;99.90;;;;;;4966454;28;19918;-81
2021/11/29 18:50:47;;;;;;;;;;;4.00;99.90;;;;;;5087799;23;20162;-81
2021/11/29 18:53:19;;;;;;;;;;;4.00;99.90;;;;;;4991318;28;19910;-81
2021/11/29 18:58:13;;;;;;;;;;;4.00;99.90;;;;;;5542135;23;19926;-81
2021/11/29 19:01:06;;;;;;;;;;;4.00;99.90;;;;;;4983266;28;19915;-82
2021/11/29 19:03:33;;;;;;;;;;;4.00;99.90;;;;;;4981925;28;19926;-82
2021/11/29 19:06:01;;;;;;;;;;;3.90;99.90;;;;;;4993876;28;19926;-78
2021/11/29 19:08:28;;;;;;;;;;;4.00;99.90;;;;;;4978934;28;19934;-82
2021/11/29 19:10:57;;;;;;;;;;;3.90;99.90;;;;;;4985885;28;19934;-81
2021/11/29 19:13:25;;;;;;;;;;;3.80;99.90;;;;;;4990581;28;19910;-79
2021/11/29 19:15:52;;;;;;;;;;;3.80;99.90;;;;;;4990766;28;19953;-82
2021/11/29 19:18:19;;;;;;;;;;;3.70;99.90;;;;;;4989749;28;19910;-81
2021/11/29 19:20:48;;;;;;;;;;;3.60;99.90;;;;;;4995726;28;19926;-81
2021/11/29 19:23:15;;;;;;;;;;;3.60;99.90;;;;;;4993398;28;19920;-81
2021/11/29 19:25:43;;;;;;;;;;;3.60;99.90;;;;;;4997170;28;19910;-81
2021/11/29 19:28:16;;;;;;;;;;;3.60;99.90;;;;;;4993780;28;19910;-82
2021/11/29 19:30:45;;;;;;;;;;;3.70;99.90;;;;;;4985872;28;19985;-81
2021/11/29 19:38:22;;;;;;;;;;;3.70;99.90;;;;;;5028692;23;19927;-81
2021/11/29 19:40:57;;;;;;;;;;;3.70;99.90;;;;;;4985665;28;19926;-81
2021/11/29 19:43:24;;;;;;;;;;;3.70;99.90;;;;;;4986742;28;19910;-82
2021/11/29 19:48:36;;;;;;;;;;;3.70;99.90;;;;;;5198876;23;20360;-82
2021/11/29 19:51:03;;;;;;;;;;;3.80;99.90;;;;;;4961182;28;19927;-78
2021/11/29 19:53:31;;;;;;;;;;;3.70;99.90;;;;;;4960000;29;19986;-82
2021/11/29 19:56:01;;;;;;;;;;;3.70;99.90;;;;;;4976293;28;20218;-82
2021/11/29 19:58:28;;;;;;;;;;;3.60;99.90;;;;;;4973673;28;19917;-82
2021/11/29 20:00:55;;;;;;;;;;;3.60;99.90;;;;;;4965681;28;19958;-80
2021/11/29 20:03:22;;;;;;;;;;;3.50;99.90;;;;;;4974665;29;19970;-81
2021/11/29 20:08:48;;;;;;;;;;;3.50;99.90;;;;;;4973070;28;19926;-80
2021/11/29 20:11:16;;;;;;;;;;;3.50;99.90;;;;;;4964658;29;19942;-81
2021/11/29 20:13:45;;;;;;;;;;;3.40;99.90;;;;;;4975666;28;19926;-82
2021/11/29 20:16:13;;;;;;;;;;;3.40;99.90;;;;;;4971972;28;19917;-82
2021/11/29 20:18:39;;;;;;;;;;;3.40;99.90;;;;;;4956825;29;19981;-77
2021/11/29 20:21:06;;;;;;;;;;;3.30;99.90;;;;;;4954796;28;19934;-79
2021/11/29 20:23:35;;;;;;;;;;;3.40;99.90;;;;;;4962828;29;19989;-80
2021/11/29 20:26:03;;;;;;;;;;;3.30;99.90;;;;;;4975417;29;19926;-80
2021/11/29 20:28:30;;;;;;;;;;;3.30;99.90;;;;;;4975802;28;19914;-77
2021/11/29 20:30:57;;;;;;;;;;;3.30;99.90;;;;;;4967272;28;19990;-80
2021/11/29 20:33:24;;;;;;;;;;;3.20;99.90;;;;;;5069449;23;19990;-81
2021/11/29 20:35:53;;;;;;;;;;;3.20;99.90;;;;;;4971565;28;19918;-80
2021/11/29 20:38:22;;;;;;;;;;;3.20;99.90;;;;;;5170126;23;19922;-81
2021/11/29 20:40:49;;;;;;;;;;;3.20;99.90;;;;;;4985074;28;19914;-81
2021/11/29 20:43:17;;;;;;;;;;;3.30;99.90;;;;;;4994173;28;19996;-81
2021/11/29 20:45:46;;;;;;;;;;;3.20;99.90;;;;;;4997876;28;19926;-80
2021/11/29 20:48:13;;;;;;;;;;;3.30;99.90;;;;;;4992577;28;19937;-82
2021/11/29 20:50:40;;;;;;;;;;;3.10;99.90;;;;;;4990683;28;19922;-81
2021/11/29 20:53:07;;;;;;;;;;;3.20;99.90;;;;;;4987389;28;19930;-81
2021/11/29 20:55:34;;;;;;;;;;;3.10;99.90;;;;;;4985749;28;20638;-82
2021/11/29 21:00:30;;;;;;;;;;;3.10;99.90;;;;;;5542021;23;19961;-80
2021/11/29 21:02:57;;;;;;;;;;;3.20;99.90;;;;;;4982997;28;19933;-79
2021/11/29 21:05:24;;;;;;;;;;;3.00;99.90;;;;;;4988333;28;19950;-81
2021/11/29 21:07:51;;;;;;;;;;;3.00;99.90;;;;;;4988487;28;19930;-81
2021/11/29 21:10:19;;;;;;;;;;;3.10;99.90;;;;;;5419899;23;19922;-83
2021/11/29 21:12:46;;;;;;;;;;;3.10;99.90;;;;;;4975329;28;19931;-82
2021/11/29 21:15:13;;;;;;;;;;;3.00;99.90;;;;;;4980147;28;19914;-80
2021/11/29 21:17:42;;;;;;;;;;;3.00;99.90;;;;;;4970795;28;19910;-76
2021/11/29 21:25:16;;;;;;;;;;;2.90;99.90;;;;;;5896570;23;19941;-78
2021/11/29 21:30:52;;;;;;;;;;;2.90;99.90;;;;;;4972471;28;19910;-81
2021/11/29 21:33:20;;;;;;;;;;;2.90;99.90;;;;;;4964479;28;19917;-71
2021/11/29 21:35:47;;;;;;;;;;;2.90;99.90;;;;;;4964753;28;19910;-72
2021/11/29 21:38:14;;;;;;;;;;;2.90;99.90;;;;;;4945522;28;19919;-72
2021/11/29 21:40:42;;;;;;;;;;;2.90;99.90;;;;;;4951424;28;19971;-82
2021/11/29 21:43:09;;;;;;;;;;;2.90;99.90;;;;;;4955936;28;19911;-77
2021/11/29 21:56:00;;;;;;;;;;;3.00;99.90;;;;;;5366570;23;19916;-73
2021/11/29 21:58:27;;;;;;;;;;;3.00;99.90;;;;;;5329346;23;19924;-82
2021/11/29 22:00:54;;;;;;;;;;;3.30;99.90;;;;;;5013590;28;19932;-83
2021/11/29 22:03:21;;;;;;;;;;;2.90;99.90;;;;;;5011622;28;19937;-84
2021/11/29 22:05:47;;;;;;;;;;;3.10;99.90;;;;;;5012695;28;19917;-84
2021/11/29 22:08:14;;;;;;;;;;;3.10;99.90;;;;;;5005058;28;19910;-84
2021/11/29 22:10:41;;;;;;;;;;;3.10;99.90;;;;;;5008774;28;19910;-72
2021/11/29 22:13:09;;;;;;;;;;;3.10;99.90;;;;;;5002743;28;19911;-84
2021/11/29 22:15:37;;;;;;;;;;;3.10;99.90;;;;;;5006056;28;19910;-83
2021/11/29 22:20:39;;;;;;;;;;;3.30;99.90;;;;;;5535796;23;19910;-83
2021/11/29 22:23:07;;;;;;;;;;;3.40;99.90;;;;;;4977705;28;19951;-84
2021/11/29 22:25:33;;;;;;;;;;;3.40;99.90;;;;;;4983032;28;19910;-80
2021/11/29 22:28:00;;;;;;;;;;;3.90;99.90;;;;;;4976101;28;19934;-81
2021/11/29 22:30:29;;;;;;;;;;;3.50;99.90;;;;;;4981638;28;19917;-84
2021/11/29 22:32:56;;;;;;;;;;;3.50;99.90;;;;;;4974030;28;19955;-82
2021/11/29 22:35:23;;;;;;;;;;;3.50;99.90;;;;;;4974887;28;19918;-82
2021/11/29 22:37:50;;;;;;;;;;;3.40;99.90;;;;;;4965957;28;19918;-84
2021/11/29 22:40:17;;;;;;;;;;;3.10;99.90;;;;;;4971880;28;19935;-83
2021/11/29 22:42:44;;;;;;;;;;;3.30;99.90;;;;;;4973658;28;19930;-84
2021/11/29 22:45:11;;;;;;;;;;;3.60;99.90;;;;;;4982242;28;19914;-77
2021/11/29 22:47:39;;;;;;;;;;;3.50;99.90;;;;;;4987766;28;19911;-78
2021/11/29 22:50:07;;;;;;;;;;;3.60;99.90;;;;;;4963129;28;19918;-80
2021/11/29 22:52:34;;;;;;;;;;;3.60;99.90;;;;;;4963412;28;19938;-80
2021/11/29 22:55:02;;;;;;;;;;;3.70;99.90;;;;;;4967044;28;19970;-72
2021/11/29 22:57:28;;;;;;;;;;;3.50;99.90;;;;;;4975693;28;19911;-82
2021/11/29 22:59:56;;;;;;;;;;;3.60;99.90;;;;;;4963221;28;19911;-79
2021/11/29 23:02:23;;;;;;;;;;;3.60;99.90;;;;;;4963324;28;19930;-81
2021/11/29 23:04:52;;;;;;;;;;;3.60;99.90;;;;;;4970455;28;19918;-75
2021/11/29 23:07:19;;;;;;;;;;;3.60;99.90;;;;;;4965180;28;19953;-81
2021/11/29 23:09:45;;;;;;;;;;;3.60;99.90;;;;;;4968998;28;19917;-84
2021/11/29 23:12:12;;;;;;;;;;;3.60;99.90;;;;;;4980267;28;19949;-73
2021/11/29 23:14:39;;;;;;;;;;;3.60;99.90;;;;;;4982043;28;19942;-75
2021/11/29 23:17:06;;;;;;;;;;;3.50;99.90;;;;;;4971560;28;19918;-76
2021/11/29 23:19:33;;;;;;;;;;;3.60;99.90;;;;;;4962662;28;19919;-83
2021/11/29 23:22:02;;;;;;;;;;;3.60;99.90;;;;;;4979793;28;19969;-73
2021/11/29 23:24:29;;;;;;;;;;;3.60;99.90;;;;;;4981816;28;19926;-73